sensor_id;sensor_type;location;lat;lon;timestamp;pressure;altitude;pressure_sealevel;temperature;humidity
68179;BME280;54998;42.656;23.382;2023-03-19T00:02:22;95397.63;;;-0.89;65.59
68179;BME280;54998;42.656;23.382;2023-03-19T00:04:48;95407.47;;;-0.83;65.05
68179;BME280;54998;42.656;23.382;2023-03-19T00:07:14;95398.59;;;-0.93;64.52
68179;BME280;54998;42.656;23.382;2023-03-19T00:09:40;95388.69;;;-0.98;64.30
68179;BME280;54998;42.656;23.382;2023-03-19T00:12:06;95387.06;;;-0.99;65.02
68179;BME280;54998;42.656;23.382;2023-03-19T00:14:32;95397.78;;;-0.94;64.22
68179;BME280;54998;42.656;23.382;2023-03-19T00:16:58;95393.50;;;-0.92;64.05
68179;BME280;54998;42.656;23.382;2023-03-19T00:19:23;95390.72;;;-0.84;64.03
68179;BME280;54998;42.656;23.382;2023-03-19T00:21:49;95387.38;;;-0.85;64.05
68179;BME280;54998;42.656;23.382;2023-03-19T00:24:15;95390.63;;;-0.83;63.56
68179;BME280;54998;42.656;23.382;2023-03-19T00:26:42;95385.78;;;-0.87;63.18
68179;BME280;54998;42.656;23.382;2023-03-19T00:29:07;95378.41;;;-0.92;63.25
68179;BME280;54998;42.656;23.382;2023-03-19T00:31:33;95380.88;;;-0.90;63.43
68179;BME280;54998;42.656;23.382;2023-03-19T00:34:00;95380.50;;;-1.03;64.11
68179;BME280;54998;42.656;23.382;2023-03-19T00:36:26;95379.91;;;-1.10;64.57
68179;BME280;54998;42.656;23.382;2023-03-19T00:38:52;95372.47;;;-1.13;64.78
68179;BME280;54998;42.656;23.382;2023-03-19T00:41:18;95366.69;;;-1.15;65.16
68179;BME280;54998;42.656;23.382;2023-03-19T00:43:45;95374.34;;;-1.18;65.63
68179;BME280;54998;42.656;23.382;2023-03-19T00:46:10;95372.47;;;-1.13;65.59
68179;BME280;54998;42.656;23.382;2023-03-19T00:48:36;95364.31;;;-1.19;65.92
68179;BME280;54998;42.656;23.382;2023-03-19T00:51:06;95361.88;;;-1.21;66.41
68179;BME280;54998;42.656;23.382;2023-03-19T00:53:32;95358.44;;;-1.20;66.64
68179;BME280;54998;42.656;23.382;2023-03-19T00:56:00;95359.22;;;-1.18;67.05
68179;BME280;54998;42.656;23.382;2023-03-19T00:58:26;95363.41;;;-1.17;67.38
68179;BME280;54998;42.656;23.382;2023-03-19T01:00:52;95356.06;;;-1.23;67.58
68179;BME280;54998;42.656;23.382;2023-03-19T01:03:18;95345.28;;;-1.27;67.92
68179;BME280;54998;42.656;23.382;2023-03-19T01:05:46;95352.72;;;-1.23;67.99
68179;BME280;54998;42.656;23.382;2023-03-19T01:08:12;95361.97;;;-1.24;68.12
68179;BME280;54998;42.656;23.382;2023-03-19T01:10:38;95361.97;;;-1.24;68.58
68179;BME280;54998;42.656;23.382;2023-03-19T01:13:04;95357.81;;;-1.25;69.01
68179;BME280;54998;42.656;23.382;2023-03-19T01:15:29;95355.56;;;-1.33;68.66
68179;BME280;54998;42.656;23.382;2023-03-19T01:17:54;95344.84;;;-1.38;68.89
68179;BME280;54998;42.656;23.382;2023-03-19T01:20:20;95350.81;;;-1.40;68.46
68179;BME280;54998;42.656;23.382;2023-03-19T01:22:48;95352.03;;;-1.51;68.41
68179;BME280;54998;42.656;23.382;2023-03-19T01:25:13;95347.16;;;-1.55;68.54
68179;BME280;54998;42.656;23.382;2023-03-19T01:27:40;95346.50;;;-1.60;68.88
68179;BME280;54998;42.656;23.382;2023-03-19T01:30:06;95343.91;;;-1.59;68.80
68179;BME280;54998;42.656;23.382;2023-03-19T01:32:32;95342.06;;;-1.54;68.00
68179;BME280;54998;42.656;23.382;2023-03-19T01:34:58;95341.44;;;-1.37;66.02
68179;BME280;54998;42.656;23.382;2023-03-19T01:37:23;95348.44;;;-1.21;64.79
68179;BME280;54998;42.656;23.382;2023-03-19T01:39:48;95350.88;;;-1.42;64.57
68179;BME280;54998;42.656;23.382;2023-03-19T01:42:14;95344.09;;;-1.40;64.77
68179;BME280;54998;42.656;23.382;2023-03-19T01:44:40;95341.22;;;-1.31;64.45
68179;BME280;54998;42.656;23.382;2023-03-19T01:47:39;95341.03;;;-1.26;64.34
68179;BME280;54998;42.656;23.382;2023-03-19T01:50:15;95342.59;;;-1.46;64.55
68179;BME280;54998;42.656;23.382;2023-03-19T01:52:45;95344.63;;;-1.55;64.65
68179;BME280;54998;42.656;23.382;2023-03-19T01:55:10;95345.03;;;-1.66;64.96
68179;BME280;54998;42.656;23.382;2023-03-19T01:57:36;95348.34;;;-1.66;65.04
68179;BME280;54998;42.656;23.382;2023-03-19T02:00:03;95349.34;;;-1.70;65.35
68179;BME280;54998;42.656;23.382;2023-03-19T02:02:33;95346.22;;;-1.76;65.63
68179;BME280;54998;42.656;23.382;2023-03-19T02:05:12;95344.75;;;-1.82;65.80
68179;BME280;54998;42.656;23.382;2023-03-19T02:07:40;95346.75;;;-1.92;66.13
68179;BME280;54998;42.656;23.382;2023-03-19T02:10:11;95353.19;;;-1.84;66.79
68179;BME280;54998;42.656;23.382;2023-03-19T02:12:37;95353.28;;;-1.86;66.72
68179;BME280;54998;42.656;23.382;2023-03-19T02:15:03;95343.09;;;-1.83;66.94
68179;BME280;54998;42.656;23.382;2023-03-19T02:17:29;95352.91;;;-1.75;66.82
68179;BME280;54998;42.656;23.382;2023-03-19T02:22:27;95352.28;;;-1.58;65.90
68179;BME280;54998;42.656;23.382;2023-03-19T02:25:06;95350.50;;;-1.55;65.90
68179;BME280;54998;42.656;23.382;2023-03-19T02:27:34;95349.63;;;-1.54;65.80
68179;BME280;54998;42.656;23.382;2023-03-19T02:29:59;95360.78;;;-1.61;65.60
68179;BME280;54998;42.656;23.382;2023-03-19T02:32:25;95359.78;;;-1.57;65.56
68179;BME280;54998;42.656;23.382;2023-03-19T02:34:51;95353.44;;;-1.67;65.31
68179;BME280;54998;42.656;23.382;2023-03-19T02:37:20;95358.22;;;-1.59;65.41
68179;BME280;54998;42.656;23.382;2023-03-19T02:40:05;95359.84;;;-1.58;65.38
68179;BME280;54998;42.656;23.382;2023-03-19T02:42:32;95358.53;;;-1.69;65.77
68179;BME280;54998;42.656;23.382;2023-03-19T02:44:58;95358.38;;;-1.64;66.04
68179;BME280;54998;42.656;23.382;2023-03-19T02:47:24;95346.44;;;-1.59;66.06
68179;BME280;54998;42.656;23.382;2023-03-19T02:49:50;95356.78;;;-1.67;66.18
68179;BME280;54998;42.656;23.382;2023-03-19T02:52:16;95355.50;;;-1.78;66.66
68179;BME280;54998;42.656;23.382;2023-03-19T02:54:41;95348.72;;;-1.76;66.99
68179;BME280;54998;42.656;23.382;2023-03-19T02:57:07;95353.75;;;-1.76;66.90
68179;BME280;54998;42.656;23.382;2023-03-19T02:59:32;95353.56;;;-1.70;66.71
68179;BME280;54998;42.656;23.382;2023-03-19T03:01:58;95349.75;;;-1.58;66.86
68179;BME280;54998;42.656;23.382;2023-03-19T03:04:23;95350.22;;;-1.47;66.14
68179;BME280;54998;42.656;23.382;2023-03-19T03:06:49;95353.22;;;-1.37;65.51
68179;BME280;54998;42.656;23.382;2023-03-19T03:09:14;95357.09;;;-1.29;65.27
68179;BME280;54998;42.656;23.382;2023-03-19T03:11:40;95354.97;;;-1.39;65.19
68179;BME280;54998;42.656;23.382;2023-03-19T03:14:06;95355.66;;;-1.58;65.94
68179;BME280;54998;42.656;23.382;2023-03-19T03:16:32;95365.28;;;-1.69;66.60
68179;BME280;54998;42.656;23.382;2023-03-19T03:18:58;95366.28;;;-1.75;66.93
68179;BME280;54998;42.656;23.382;2023-03-19T03:21:23;95371.53;;;-1.81;67.15
68179;BME280;54998;42.656;23.382;2023-03-19T03:23:50;95372.34;;;-1.80;67.84
68179;BME280;54998;42.656;23.382;2023-03-19T03:26:15;95374.56;;;-1.71;68.45
68179;BME280;54998;42.656;23.382;2023-03-19T03:28:41;95377.75;;;-1.66;68.76
68179;BME280;54998;42.656;23.382;2023-03-19T03:31:07;95376.97;;;-1.68;69.22
68179;BME280;54998;42.656;23.382;2023-03-19T03:33:33;95380.38;;;-1.69;69.03
68179;BME280;54998;42.656;23.382;2023-03-19T03:35:58;95373.19;;;-1.80;69.03
68179;BME280;54998;42.656;23.382;2023-03-19T03:38:23;95384.28;;;-1.86;69.43
68179;BME280;54998;42.656;23.382;2023-03-19T03:40:52;95386.34;;;-1.97;69.41
68179;BME280;54998;42.656;23.382;2023-03-19T03:43:19;95392.53;;;-2.07;69.72
68179;BME280;54998;42.656;23.382;2023-03-19T03:45:46;95391.97;;;-2.15;70.12
68179;BME280;54998;42.656;23.382;2023-03-19T03:48:12;95400.19;;;-2.10;70.17
68179;BME280;54998;42.656;23.382;2023-03-19T03:50:38;95394.63;;;-2.20;70.17
68179;BME280;54998;42.656;23.382;2023-03-19T03:53:04;95388.06;;;-2.24;69.95
68179;BME280;54998;42.656;23.382;2023-03-19T03:55:29;95390.00;;;-2.32;70.20
68179;BME280;54998;42.656;23.382;2023-03-19T03:57:56;95401.78;;;-2.34;70.66
68179;BME280;54998;42.656;23.382;2023-03-19T04:00:21;95398.47;;;-2.35;70.81
68179;BME280;54998;42.656;23.382;2023-03-19T04:02:48;95398.47;;;-2.35;71.07
68179;BME280;54998;42.656;23.382;2023-03-19T04:05:13;95396.91;;;-2.39;71.25
68179;BME280;54998;42.656;23.382;2023-03-19T04:07:39;95390.41;;;-2.44;71.53
68179;BME280;54998;42.656;23.382;2023-03-19T04:10:05;95385.47;;;-2.48;71.76
68179;BME280;54998;42.656;23.382;2023-03-19T04:12:31;95390.56;;;-2.49;71.88
68179;BME280;54998;42.656;23.382;2023-03-19T04:14:57;95389.66;;;-2.48;71.37
68179;BME280;54998;42.656;23.382;2023-03-19T04:17:22;95391.41;;;-2.50;71.65
68179;BME280;54998;42.656;23.382;2023-03-19T04:19:48;95389.72;;;-2.50;71.76
68179;BME280;54998;42.656;23.382;2023-03-19T04:22:14;95392.66;;;-2.37;71.82
68179;BME280;54998;42.656;23.382;2023-03-19T04:24:40;95391.19;;;-2.17;70.61
68179;BME280;54998;42.656;23.382;2023-03-19T04:27:06;95388.16;;;-2.27;70.23
68179;BME280;54998;42.656;23.382;2023-03-19T04:29:31;95398.03;;;-2.21;70.28
68179;BME280;54998;42.656;23.382;2023-03-19T04:31:57;95399.78;;;-2.23;70.17
68179;BME280;54998;42.656;23.382;2023-03-19T04:34:22;95400.00;;;-2.31;69.91
68179;BME280;54998;42.656;23.382;2023-03-19T04:36:48;95405.97;;;-2.33;69.61
68179;BME280;54998;42.656;23.382;2023-03-19T04:39:15;95407.66;;;-2.34;69.39
68179;BME280;54998;42.656;23.382;2023-03-19T04:41:40;95395.09;;;-2.34;69.47
68179;BME280;54998;42.656;23.382;2023-03-19T04:44:05;95407.41;;;-2.26;69.38
68179;BME280;54998;42.656;23.382;2023-03-19T04:46:31;95405.34;;;-2.15;69.28
68179;BME280;54998;42.656;23.382;2023-03-19T04:48:57;95401.59;;;-2.01;68.88
68179;BME280;54998;42.656;23.382;2023-03-19T04:51:23;95389.81;;;-1.52;67.85
68179;BME280;54998;42.656;23.382;2023-03-19T04:53:49;95396.16;;;-0.73;64.31
68179;BME280;54998;42.656;23.382;2023-03-19T04:56:14;95393.38;;;-0.02;62.86
68179;BME280;54998;42.656;23.382;2023-03-19T04:58:43;95405.06;;;0.79;59.20
68179;BME280;54998;42.656;23.382;2023-03-19T05:01:09;95405.13;;;0.97;58.00
68179;BME280;54998;42.656;23.382;2023-03-19T05:03:35;95397.69;;;1.13;57.48
68179;BME280;54998;42.656;23.382;2023-03-19T05:06:00;95399.25;;;1.52;56.79
68179;BME280;54998;42.656;23.382;2023-03-19T05:08:26;95397.16;;;1.96;55.36
68179;BME280;54998;42.656;23.382;2023-03-19T05:10:51;95398.97;;;2.28;54.16
68179;BME280;54998;42.656;23.382;2023-03-19T05:13:17;95397.28;;;2.61;53.76
68179;BME280;54998;42.656;23.382;2023-03-19T05:15:44;95394.22;;;2.88;52.92
68179;BME280;54998;42.656;23.382;2023-03-19T05:18:10;95389.41;;;3.77;50.52
68179;BME280;54998;42.656;23.382;2023-03-19T05:20:37;95400.38;;;4.38;48.88
68179;BME280;54998;42.656;23.382;2023-03-19T05:23:02;95395.50;;;5.20;46.08
68179;BME280;54998;42.656;23.382;2023-03-19T05:25:28;95396.66;;;5.97;44.71
68179;BME280;54998;42.656;23.382;2023-03-19T05:27:54;95401.56;;;7.03;41.99
68179;BME280;54998;42.656;23.382;2023-03-19T05:30:20;95392.66;;;7.69;39.52
68179;BME280;54998;42.656;23.382;2023-03-19T05:32:45;95394.72;;;8.59;38.52
68179;BME280;54998;42.656;23.382;2023-03-19T05:35:11;95398.19;;;8.58;37.88
68179;BME280;54998;42.656;23.382;2023-03-19T05:37:37;95394.22;;;8.07;39.06
68179;BME280;54998;42.656;23.382;2023-03-19T05:40:04;95393.22;;;7.86;39.32
68179;BME280;54998;42.656;23.382;2023-03-19T05:42:29;95398.25;;;6.38;42.33
68179;BME280;54998;42.656;23.382;2023-03-19T05:44:55;95396.00;;;5.93;44.10
68179;BME280;54998;42.656;23.382;2023-03-19T05:47:20;95402.78;;;5.53;44.47
68179;BME280;54998;42.656;23.382;2023-03-19T05:49:46;95405.31;;;5.53;44.73
68179;BME280;54998;42.656;23.382;2023-03-19T05:52:11;95399.88;;;5.18;45.16
68179;BME280;54998;42.656;23.382;2023-03-19T05:54:37;95405.38;;;4.83;46.81
68179;BME280;54998;42.656;23.382;2023-03-19T05:57:02;95399.94;;;5.30;45.23
68179;BME280;54998;42.656;23.382;2023-03-19T05:59:28;95397.13;;;6.29;42.97
68179;BME280;54998;42.656;23.382;2023-03-19T06:01:54;95399.69;;;8.14;38.79
68179;BME280;54998;42.656;23.382;2023-03-19T06:04:19;95394.38;;;10.28;35.42
68179;BME280;54998;42.656;23.382;2023-03-19T06:06:45;95392.75;;;11.00;33.80
68179;BME280;54998;42.656;23.382;2023-03-19T06:09:11;95393.59;;;11.60;33.66
68179;BME280;54998;42.656;23.382;2023-03-19T06:11:36;95397.41;;;12.44;32.70
68179;BME280;54998;42.656;23.382;2023-03-19T06:14:05;95379.50;;;13.72;30.06
68179;BME280;54998;42.656;23.382;2023-03-19T06:16:31;95388.91;;;15.06;27.87
68179;BME280;54998;42.656;23.382;2023-03-19T06:18:57;95384.00;;;16.86;25.43
68179;BME280;54998;42.656;23.382;2023-03-19T06:21:23;95395.97;;;16.87;25.04
68179;BME280;54998;42.656;23.382;2023-03-19T06:23:54;95398.69;;;15.28;26.64
68179;BME280;54998;42.656;23.382;2023-03-19T06:26:19;95392.53;;;13.53;29.14
68179;BME280;54998;42.656;23.382;2023-03-19T06:28:45;95387.25;;;15.90;25.74
68179;BME280;54998;42.656;23.382;2023-03-19T06:31:10;95394.84;;;15.99;25.77
68179;BME280;54998;42.656;23.382;2023-03-19T06:33:36;95399.94;;;14.64;27.25
68179;BME280;54998;42.656;23.382;2023-03-19T06:36:01;95397.22;;;14.91;26.59
68179;BME280;54998;42.656;23.382;2023-03-19T06:38:27;95408.72;;;14.09;27.60
68179;BME280;54998;42.656;23.382;2023-03-19T06:40:52;95408.91;;;15.89;25.73
68179;BME280;54998;42.656;23.382;2023-03-19T06:43:17;95402.28;;;16.02;25.13
68179;BME280;54998;42.656;23.382;2023-03-19T06:45:43;95397.59;;;16.88;24.10
68179;BME280;54998;42.656;23.382;2023-03-19T06:48:08;95406.03;;;17.69;22.95
68179;BME280;54998;42.656;23.382;2023-03-19T06:50:34;95405.50;;;17.03;24.24
68179;BME280;54998;42.656;23.382;2023-03-19T06:52:59;95413.44;;;15.87;24.93
68179;BME280;54998;42.656;23.382;2023-03-19T06:55:25;95406.97;;;16.89;24.95
68179;BME280;54998;42.656;23.382;2023-03-19T06:57:50;95413.63;;;16.92;24.25
68179;BME280;54998;42.656;23.382;2023-03-19T07:00:16;95419.31;;;16.38;24.43
68179;BME280;54998;42.656;23.382;2023-03-19T07:02:43;95415.22;;;17.01;23.82
68179;BME280;54998;42.656;23.382;2023-03-19T07:05:09;95407.38;;;17.96;22.81
68179;BME280;54998;42.656;23.382;2023-03-19T07:07:34;95413.50;;;18.03;23.30
68179;BME280;54998;42.656;23.382;2023-03-19T07:10:00;95410.16;;;15.26;25.63
68179;BME280;54998;42.656;23.382;2023-03-19T07:12:25;95416.09;;;16.44;24.62
68179;BME280;54998;42.656;23.382;2023-03-19T07:14:54;95426.59;;;16.10;24.54
68179;BME280;54998;42.656;23.382;2023-03-19T07:17:23;95424.81;;;14.21;27.02
68179;BME280;54998;42.656;23.382;2023-03-19T07:19:48;95425.31;;;16.14;25.21
68179;BME280;54998;42.656;23.382;2023-03-19T07:22:14;95407.22;;;17.98;23.30
68179;BME280;54998;42.656;23.382;2023-03-19T07:24:40;95418.81;;;16.10;25.34
68179;BME280;54998;42.656;23.382;2023-03-19T07:27:05;95414.03;;;18.98;21.78
68179;BME280;54998;42.656;23.382;2023-03-19T07:29:31;95414.06;;;18.14;23.15
68179;BME280;54998;42.656;23.382;2023-03-19T07:31:57;95411.19;;;19.88;20.93
68179;BME280;54998;42.656;23.382;2023-03-19T07:34:22;95409.03;;;21.48;18.66
68179;BME280;54998;42.656;23.382;2023-03-19T07:36:48;95399.16;;;20.52;19.23
68179;BME280;54998;42.656;23.382;2023-03-19T07:39:13;95407.41;;;21.47;19.10
68179;BME280;54998;42.656;23.382;2023-03-19T07:41:38;95398.47;;;18.75;21.73
68179;BME280;54998;42.656;23.382;2023-03-19T07:44:04;95402.28;;;19.98;20.37
68179;BME280;54998;42.656;23.382;2023-03-19T07:46:30;95397.59;;;19.72;20.15
68179;BME280;54998;42.656;23.382;2023-03-19T07:48:56;95409.56;;;18.08;22.50
68179;BME280;54998;42.656;23.382;2023-03-19T07:51:21;95408.28;;;16.19;24.54
68179;BME280;54998;42.656;23.382;2023-03-19T07:53:47;95414.28;;;18.50;22.49
68179;BME280;54998;42.656;23.382;2023-03-19T07:56:12;95397.22;;;19.60;20.94
68179;BME280;54998;42.656;23.382;2023-03-19T07:58:38;95405.25;;;20.16;20.38
68179;BME280;54998;42.656;23.382;2023-03-19T08:01:03;95410.84;;;18.12;21.88
68179;BME280;54998;42.656;23.382;2023-03-19T08:03:29;95393.97;;;19.06;21.34
68179;BME280;54998;42.656;23.382;2023-03-19T08:05:54;95405.44;;;18.82;21.88
68179;BME280;54998;42.656;23.382;2023-03-19T08:08:19;95403.16;;;18.56;21.84
68179;BME280;54998;42.656;23.382;2023-03-19T08:10:45;95412.25;;;17.91;22.52
68179;BME280;54998;42.656;23.382;2023-03-19T08:13:12;95409.88;;;15.96;25.74
68179;BME280;54998;42.656;23.382;2023-03-19T08:15:38;95405.91;;;17.31;24.89
68179;BME280;54998;42.656;23.382;2023-03-19T08:18:04;95407.34;;;16.29;25.60
68179;BME280;54998;42.656;23.382;2023-03-19T08:20:30;95402.00;;;16.30;24.97
68179;BME280;54998;42.656;23.382;2023-03-19T08:22:56;95406.06;;;19.29;22.07
68179;BME280;54998;42.656;23.382;2023-03-19T08:25:23;95401.72;;;20.24;20.43
68179;BME280;54998;42.656;23.382;2023-03-19T08:27:49;95407.03;;;18.60;22.25
68179;BME280;54998;42.656;23.382;2023-03-19T08:30:14;95401.38;;;18.80;21.94
68179;BME280;54998;42.656;23.382;2023-03-19T08:32:40;95403.59;;;19.72;22.09
68179;BME280;54998;42.656;23.382;2023-03-19T08:35:06;95395.59;;;18.70;22.00
68179;BME280;54998;42.656;23.382;2023-03-19T08:37:32;95395.22;;;21.54;20.49
68179;BME280;54998;42.656;23.382;2023-03-19T08:39:57;95389.84;;;20.64;19.75
68179;BME280;54998;42.656;23.382;2023-03-19T08:42:23;95390.28;;;20.46;19.92
68179;BME280;54998;42.656;23.382;2023-03-19T08:44:49;95382.31;;;20.55;19.63
68179;BME280;54998;42.656;23.382;2023-03-19T08:47:14;95389.97;;;21.12;19.04
68179;BME280;54998;42.656;23.382;2023-03-19T08:49:40;95385.97;;;21.51;19.01
68179;BME280;54998;42.656;23.382;2023-03-19T08:52:07;95373.44;;;21.95;18.03
68179;BME280;54998;42.656;23.382;2023-03-19T08:54:32;95376.25;;;19.32;20.02
68179;BME280;54998;42.656;23.382;2023-03-19T08:57:01;95374.94;;;18.91;20.96
68179;BME280;54998;42.656;23.382;2023-03-19T08:59:26;95375.38;;;18.95;21.09
68179;BME280;54998;42.656;23.382;2023-03-19T09:01:52;95369.16;;;19.40;21.15
68179;BME280;54998;42.656;23.382;2023-03-19T09:04:21;95362.75;;;20.37;19.53
68179;BME280;54998;42.656;23.382;2023-03-19T09:06:47;95361.19;;;22.15;16.86
68179;BME280;54998;42.656;23.382;2023-03-19T09:09:17;95351.16;;;23.51;15.78
68179;BME280;54998;42.656;23.382;2023-03-19T09:11:42;95349.06;;;23.66;15.58
68179;BME280;54998;42.656;23.382;2023-03-19T09:14:08;95353.13;;;20.16;18.79
68179;BME280;54998;42.656;23.382;2023-03-19T09:16:35;95351.88;;;21.73;16.70
68179;BME280;54998;42.656;23.382;2023-03-19T09:19:01;95343.31;;;23.89;15.45
68179;BME280;54998;42.656;23.382;2023-03-19T09:21:26;95341.75;;;23.36;16.16
68179;BME280;54998;42.656;23.382;2023-03-19T09:23:52;95345.19;;;21.09;16.63
68179;BME280;54998;42.656;23.382;2023-03-19T09:26:17;95352.47;;;21.27;17.01
68179;BME280;54998;42.656;23.382;2023-03-19T09:28:42;95343.38;;;23.76;14.96
68179;BME280;54998;42.656;23.382;2023-03-19T09:31:09;95346.69;;;25.15;14.44
68179;BME280;54998;42.656;23.382;2023-03-19T09:33:35;95345.38;;;23.81;15.06
68179;BME280;54998;42.656;23.382;2023-03-19T09:36:01;95343.84;;;25.17;14.29
68179;BME280;54998;42.656;23.382;2023-03-19T09:38:26;95340.44;;;23.14;16.29
68179;BME280;54998;42.656;23.382;2023-03-19T09:46:17;95343.19;;;23.77;15.45
68179;BME280;54998;42.656;23.382;2023-03-19T09:48:58;95349.91;;;20.14;19.03
68179;BME280;54998;42.656;23.382;2023-03-19T09:51:40;95330.75;;;23.14;16.04
68179;BME280;54998;42.656;23.382;2023-03-19T09:54:20;95333.56;;;24.28;15.28
68179;BME280;54998;42.656;23.382;2023-03-19T09:56:47;95327.13;;;23.61;16.15
68179;BME280;54998;42.656;23.382;2023-03-19T09:59:12;95318.44;;;25.48;14.56
68179;BME280;54998;42.656;23.382;2023-03-19T10:01:39;95315.03;;;23.98;15.50
68179;BME280;54998;42.656;23.382;2023-03-19T10:07:11;95311.06;;;21.65;17.07
68179;BME280;54998;42.656;23.382;2023-03-19T10:12:44;95310.81;;;24.47;15.53
68179;BME280;54998;42.656;23.382;2023-03-19T10:15:28;95303.78;;;24.41;15.48
68179;BME280;54998;42.656;23.382;2023-03-19T10:21:06;95303.31;;;22.25;17.31
68179;BME280;54998;42.656;23.382;2023-03-19T10:23:44;95299.88;;;19.03;20.54
68179;BME280;54998;42.656;23.382;2023-03-19T10:26:15;95299.84;;;21.85;17.67
68179;BME280;54998;42.656;23.382;2023-03-19T10:28:44;95284.44;;;23.15;16.17
68179;BME280;54998;42.656;23.382;2023-03-19T10:34:06;95267.56;;;26.14;14.12
68179;BME280;54998;42.656;23.382;2023-03-19T10:36:36;95270.22;;;24.75;14.62
68179;BME280;54998;42.656;23.382;2023-03-19T10:39:02;95271.19;;;23.03;16.53
68179;BME280;54998;42.656;23.382;2023-03-19T10:44:13;95263.25;;;24.80;14.76
68179;BME280;54998;42.656;23.382;2023-03-19T10:46:41;95260.81;;;23.98;15.68
68179;BME280;54998;42.656;23.382;2023-03-19T10:49:13;95250.44;;;25.09;14.59
68179;BME280;54998;42.656;23.382;2023-03-19T10:51:42;95240.28;;;25.31;14.76
68179;BME280;54998;42.656;23.382;2023-03-19T10:54:26;95239.31;;;23.13;15.91
68179;BME280;54998;42.656;23.382;2023-03-19T10:56:55;95242.38;;;23.80;15.60
68179;BME280;54998;42.656;23.382;2023-03-19T10:59:36;95234.06;;;25.26;15.11
68179;BME280;54998;42.656;23.382;2023-03-19T11:04:39;95226.31;;;23.38;15.63
68179;BME280;54998;42.656;23.382;2023-03-19T11:07:10;95213.47;;;22.78;16.51
68179;BME280;54998;42.656;23.382;2023-03-19T11:09:41;95220.59;;;23.48;16.34
68179;BME280;54998;42.656;23.382;2023-03-19T11:12:20;95213.03;;;23.01;15.78
68179;BME280;54998;42.656;23.382;2023-03-19T11:14:50;95204.44;;;23.57;16.42
68179;BME280;54998;42.656;23.382;2023-03-19T11:17:22;95195.16;;;21.80;17.54
68179;BME280;54998;42.656;23.382;2023-03-19T11:19:56;95196.28;;;20.34;18.90
68179;BME280;54998;42.656;23.382;2023-03-19T11:24:56;95196.09;;;22.45;17.15
68179;BME280;54998;42.656;23.382;2023-03-19T11:27:30;95173.59;;;24.65;15.89
68179;BME280;54998;42.656;23.382;2023-03-19T11:29:56;95178.56;;;25.22;15.24
68179;BME280;54998;42.656;23.382;2023-03-19T11:32:29;95174.47;;;24.77;15.43
68179;BME280;54998;42.656;23.382;2023-03-19T11:40:46;95162.56;;;25.66;14.38
68179;BME280;54998;42.656;23.382;2023-03-19T11:51:27;95145.16;;;24.80;15.56
68179;BME280;54998;42.656;23.382;2023-03-19T11:54:13;95145.41;;;25.09;15.14
68179;BME280;54998;42.656;23.382;2023-03-19T11:56:53;95148.31;;;24.34;15.70
68179;BME280;54998;42.656;23.382;2023-03-19T12:12:33;95127.16;;;23.42;17.14
68179;BME280;54998;42.656;23.382;2023-03-19T12:26:07;95106.16;;;24.54;16.26
68179;BME280;54998;42.656;23.382;2023-03-19T12:28:40;95102.91;;;21.19;18.72
68179;BME280;54998;42.656;23.382;2023-03-19T12:33:48;95096.06;;;24.69;16.23
68179;BME280;54998;42.656;23.382;2023-03-19T12:36:23;95102.56;;;24.30;15.81
68179;BME280;54998;42.656;23.382;2023-03-19T12:38:53;95093.44;;;24.69;15.99
68179;BME280;54998;42.656;23.382;2023-03-19T12:44:10;95087.56;;;22.09;17.75
68179;BME280;54998;42.656;23.382;2023-03-19T12:46:44;95094.22;;;21.99;18.50
68179;BME280;54998;42.656;23.382;2023-03-19T12:51:46;95084.28;;;22.41;18.33
68179;BME280;54998;42.656;23.382;2023-03-19T12:54:20;95083.16;;;21.97;18.12
68179;BME280;54998;42.656;23.382;2023-03-19T12:59:47;95075.00;;;22.45;18.27
68179;BME280;54998;42.656;23.382;2023-03-19T13:05:15;95073.16;;;21.87;18.48
68179;BME280;54998;42.656;23.382;2023-03-19T13:10:25;95061.78;;;22.71;18.08
68179;BME280;54998;42.656;23.382;2023-03-19T13:12:52;95065.47;;;22.05;19.10
68179;BME280;54998;42.656;23.382;2023-03-19T13:18:31;95056.22;;;19.66;21.33
68179;BME280;54998;42.656;23.382;2023-03-19T13:21:21;95067.13;;;18.41;22.81
68179;BME280;54998;42.656;23.382;2023-03-19T13:23:51;95056.47;;;17.99;23.40
68179;BME280;54998;42.656;23.382;2023-03-19T13:26:24;95055.56;;;17.62;24.28
68179;BME280;54998;42.656;23.382;2023-03-19T13:31:33;95052.34;;;16.38;25.63
68179;BME280;54998;42.656;23.382;2023-03-19T13:36:44;95047.94;;;16.39;25.94
68179;BME280;54998;42.656;23.382;2023-03-19T13:39:17;95048.19;;;16.29;25.93
68179;BME280;54998;42.656;23.382;2023-03-19T13:41:52;95044.19;;;16.18;26.04
68179;BME280;54998;42.656;23.382;2023-03-19T13:44:32;95038.28;;;16.01;26.41
68179;BME280;54998;42.656;23.382;2023-03-19T13:47:06;95041.25;;;15.90;26.64
68179;BME280;54998;42.656;23.382;2023-03-19T14:04:01;95028.19;;;15.84;26.56
68179;BME280;54998;42.656;23.382;2023-03-19T14:08:54;95021.28;;;16.07;26.73
68179;BME280;54998;42.656;23.382;2023-03-19T14:11:24;95022.88;;;16.08;26.12
68179;BME280;54998;42.656;23.382;2023-03-19T14:13:52;95021.94;;;16.01;26.18
68179;BME280;54998;42.656;23.382;2023-03-19T14:16:25;95028.47;;;15.89;26.38
68179;BME280;54998;42.656;23.382;2023-03-19T14:19:00;95017.34;;;15.80;26.52
68179;BME280;54998;42.656;23.382;2023-03-19T14:21:38;95018.72;;;15.99;26.49
68179;BME280;54998;42.656;23.382;2023-03-19T14:27:01;95022.19;;;15.83;26.83
68179;BME280;54998;42.656;23.382;2023-03-19T14:29:29;95012.97;;;15.80;26.34
68179;BME280;54998;42.656;23.382;2023-03-19T14:32:00;95015.28;;;15.59;27.02
68179;BME280;54998;42.656;23.382;2023-03-19T14:34:36;95006.75;;;15.50;27.41
68179;BME280;54998;42.656;23.382;2023-03-19T14:37:28;95005.13;;;15.57;27.29
68179;BME280;54998;42.656;23.382;2023-03-19T14:40:02;95004.44;;;15.72;26.98
68179;BME280;54998;42.656;23.382;2023-03-19T14:48:19;95004.91;;;15.67;26.73
68179;BME280;54998;42.656;23.382;2023-03-19T14:55:49;94999.72;;;15.84;26.50